createdAt,value
2019-05-12T00:00:21.751Z,1022.57
2019-05-12T00:01:21.748Z,1022.60
2019-05-12T00:01:51.692Z,1022.63
2019-05-12T00:02:21.761Z,1022.61
2019-05-12T00:02:51.696Z,1022.61
2019-05-12T00:03:51.692Z,1022.61
2019-05-12T00:04:21.771Z,1022.59
2019-05-12T00:04:53.141Z,1022.63
2019-05-12T00:05:21.750Z,1022.63
2019-05-12T00:06:21.748Z,1022.65
2019-05-12T00:06:51.697Z,1022.64
2019-05-12T00:07:21.753Z,1022.61
2019-05-12T00:07:55.077Z,1022.61
2019-05-12T00:08:51.702Z,1022.62
2019-05-12T00:09:21.751Z,1022.65
2019-05-12T00:09:51.739Z,1022.64
2019-05-12T00:10:21.748Z,1022.71
2019-05-12T00:11:21.753Z,1022.73
2019-05-12T00:11:51.694Z,1022.72
2019-05-12T00:12:21.762Z,1022.73
2019-05-12T00:12:51.712Z,1022.76
2019-05-12T00:13:51.708Z,1022.71
2019-05-12T00:14:21.753Z,1022.75
2019-05-12T00:14:51.699Z,1022.76
2019-05-12T00:15:23.135Z,1022.75
2019-05-12T00:16:24.109Z,1022.71
2019-05-12T00:16:51.697Z,1022.75
2019-05-12T00:17:21.753Z,1022.73
2019-05-12T00:17:51.697Z,1022.72
2019-05-12T00:18:51.692Z,1022.74
2019-05-12T00:19:21.751Z,1022.74
2019-05-12T00:19:51.691Z,1022.72
2019-05-12T00:20:21.804Z,1022.73
2019-05-12T00:21:21.771Z,1022.69
2019-05-12T00:21:51.691Z,1022.73
2019-05-12T00:22:21.751Z,1022.72
2019-05-12T00:22:51.693Z,1022.72
2019-05-12T00:23:51.696Z,1022.70
2019-05-12T00:24:21.773Z,1022.71
2019-05-12T00:24:51.697Z,1022.70
2019-05-12T00:25:21.753Z,1022.70
2019-05-12T00:26:21.760Z,1022.72
2019-05-12T00:26:54.086Z,1022.71
2019-05-12T00:27:21.759Z,1022.73
2019-05-12T00:27:51.702Z,1022.68
2019-05-12T00:28:55.109Z,1022.68
2019-05-12T00:29:21.757Z,1022.69
2019-05-12T00:29:51.709Z,1022.67
2019-05-12T00:30:21.759Z,1022.69
2019-05-12T00:31:21.761Z,1022.70
2019-05-12T00:31:51.699Z,1022.72
2019-05-12T00:32:21.761Z,1022.71
2019-05-12T00:32:51.701Z,1022.74
2019-05-12T00:33:51.708Z,1022.75
2019-05-12T00:34:21.754Z,1022.75
2019-05-12T00:34:51.700Z,1022.74
2019-05-12T00:35:21.760Z,1022.74
2019-05-12T00:36:23.193Z,1022.75
2019-05-12T00:36:51.699Z,1022.74
2019-05-12T00:37:24.142Z,1022.75
2019-05-12T00:37:51.701Z,1022.76
2019-05-12T00:38:51.711Z,1022.77
2019-05-12T00:39:25.174Z,1022.77
2019-05-12T00:39:51.701Z,1022.79
2019-05-12T00:40:21.768Z,1022.79
2019-05-12T00:41:21.794Z,1022.78
2019-05-12T00:41:51.701Z,1022.79
2019-05-12T00:42:21.762Z,1022.78
2019-05-12T00:42:51.708Z,1022.81
2019-05-12T00:43:51.704Z,1022.81
2019-05-12T00:44:21.766Z,1022.84
2019-05-12T00:44:51.709Z,1022.78
2019-05-12T00:45:21.781Z,1022.82
2019-05-12T00:46:21.769Z,1022.84
2019-05-12T00:46:53.235Z,1022.85
2019-05-12T00:47:21.763Z,1022.85
2019-05-12T00:47:54.189Z,1022.87
2019-05-12T00:48:51.705Z,1022.87
2019-05-12T00:49:21.829Z,1022.88
2019-05-12T00:49:55.231Z,1022.89
2019-05-12T00:50:21.768Z,1022.92
2019-05-12T00:51:21.769Z,1022.97
2019-05-12T00:51:51.719Z,1022.97
2019-05-12T00:52:21.760Z,1022.96
2019-05-12T00:52:51.705Z,1022.89
2019-05-12T00:53:51.703Z,1022.97
2019-05-12T00:54:21.768Z,1022.97
2019-05-12T00:54:51.705Z,1023.00
2019-05-12T00:55:21.767Z,1022.96
2019-05-12T00:56:21.765Z,1022.97
2019-05-12T00:56:51.711Z,1022.99
2019-05-12T00:57:23.283Z,1023.01
2019-05-12T00:57:51.707Z,1023.00
2019-05-12T00:58:51.718Z,1023.02
2019-05-12T00:59:21.777Z,1023.02
2019-05-12T00:59:51.711Z,1023.00
2019-05-12T01:00:25.277Z,1023.01
2019-05-12T01:01:21.765Z,1023.06
2019-05-12T01:01:51.713Z,1023.04
2019-05-12T01:02:21.781Z,1023.06
2019-05-12T01:02:51.713Z,1023.07
2019-05-12T01:03:51.708Z,1023.06
2019-05-12T01:04:21.786Z,1023.09
2019-05-12T01:04:51.707Z,1023.09
2019-05-12T01:05:21.772Z,1023.09
2019-05-12T01:06:21.770Z,1023.09
2019-05-12T01:06:53.707Z,1023.14
2019-05-12T01:07:21.765Z,1023.16
2019-05-12T01:07:53.133Z,1023.17
2019-05-12T01:08:54.053Z,1023.18
2019-05-12T01:09:21.765Z,1023.21
2019-05-12T01:09:51.748Z,1023.27
2019-05-12T01:10:21.767Z,1023.25
2019-05-12T01:11:21.765Z,1023.29
2019-05-12T01:11:51.715Z,1023.29
2019-05-12T01:12:21.769Z,1023.29
2019-05-12T01:12:51.723Z,1023.30
2019-05-12T01:13:51.715Z,1023.35
2019-05-12T01:14:21.772Z,1023.36
2019-05-12T01:14:51.710Z,1023.33
2019-05-12T01:15:21.773Z,1023.36
2019-05-12T01:16:21.770Z,1023.41
2019-05-12T01:16:51.714Z,1023.41
2019-05-12T01:17:21.775Z,1023.40
2019-05-12T01:17:51.713Z,1023.42
2019-05-12T01:18:51.715Z,1023.45
2019-05-12T01:19:24.150Z,1023.44
2019-05-12T01:19:51.715Z,1023.50
2019-05-12T01:20:21.779Z,1023.49
2019-05-12T01:21:25.177Z,1023.52
2019-05-12T01:21:51.713Z,1023.51
2019-05-12T01:22:21.772Z,1023.51
2019-05-12T01:22:52.710Z,1023.51
2019-05-12T01:24:03.087Z,1023.48
2019-05-12T01:24:21.772Z,1023.49
2019-05-12T01:24:51.712Z,1023.46
2019-05-12T01:25:21.782Z,1023.45
2019-05-12T01:26:21.769Z,1023.48
2019-05-12T01:26:51.709Z,1023.53
2019-05-12T01:27:21.769Z,1023.54
2019-05-12T01:27:51.729Z,1023.54
2019-05-12T01:28:53.102Z,1023.62
2019-05-12T01:29:21.778Z,1023.58
2019-05-12T01:29:54.062Z,1023.57
2019-05-12T01:30:21.773Z,1023.61
2019-05-12T01:31:21.774Z,1023.58
2019-05-12T01:31:55.085Z,1023.60
2019-05-12T01:32:21.767Z,1023.62
2019-05-12T01:32:51.712Z,1023.65
2019-05-12T01:33:51.733Z,1023.63
2019-05-12T01:34:21.771Z,1023.66
2019-05-12T01:34:51.712Z,1023.67
2019-05-12T01:35:21.774Z,1023.65
2019-05-12T01:36:21.783Z,1023.75
2019-05-12T01:36:51.712Z,1023.77
2019-05-12T01:37:21.821Z,1023.77
2019-05-12T01:37:51.709Z,1023.76
2019-05-12T01:38:51.715Z,1023.85
2019-05-12T01:39:23.102Z,1023.86
2019-05-12T01:39:51.710Z,1023.85
2019-05-12T01:40:24.059Z,1023.84
2019-05-12T01:41:21.776Z,1023.90
2019-05-12T01:41:51.712Z,1023.88
2019-05-12T01:42:28.621Z,1023.89
2019-05-12T01:42:54.930Z,1023.91
2019-05-12T01:43:51.878Z,1023.92
2019-05-12T01:44:21.842Z,1023.94
2019-05-12T01:44:51.725Z,1023.96
2019-05-12T01:45:21.778Z,1023.97
2019-05-12T01:46:21.776Z,1023.98
2019-05-12T01:46:51.720Z,1023.99
2019-05-12T01:47:21.818Z,1024.03
2019-05-12T01:47:51.717Z,1024.04
2019-05-12T01:48:51.720Z,1024.02
2019-05-12T01:49:21.780Z,1024.02
2019-05-12T01:49:53.140Z,1024.07
2019-05-12T01:50:21.782Z,1024.06
2019-05-12T01:51:21.795Z,1024.08
2019-05-12T01:51:51.731Z,1024.10
2019-05-12T01:52:21.850Z,1024.12
2019-05-12T01:52:55.138Z,1024.15
2019-05-12T01:53:51.720Z,1024.21
2019-05-12T01:54:21.779Z,1024.20
2019-05-12T01:54:51.732Z,1024.18
2019-05-12T01:55:21.797Z,1024.22
2019-05-12T01:56:21.776Z,1024.25
2019-05-12T01:56:51.718Z,1024.21
2019-05-12T01:57:21.783Z,1024.23
2019-05-12T01:57:51.718Z,1024.24
2019-05-12T01:58:51.718Z,1024.29
2019-05-12T01:59:21.778Z,1024.31
2019-05-12T01:59:51.740Z,1024.30
2019-05-12T02:00:23.136Z,1024.33
2019-05-12T02:01:24.096Z,1024.32
2019-05-12T02:01:51.719Z,1024.34
2019-05-12T02:02:21.784Z,1024.38
2019-05-12T02:02:51.728Z,1024.36
2019-05-12T02:03:51.724Z,1024.38
2019-05-12T02:04:21.792Z,1024.42
2019-05-12T02:04:51.722Z,1024.40
2019-05-12T02:05:21.861Z,1024.38
2019-05-12T02:06:21.796Z,1024.48
2019-05-12T02:06:51.726Z,1024.47
2019-05-12T02:07:21.785Z,1024.48
2019-05-12T02:07:51.724Z,1024.51
2019-05-12T02:08:51.716Z,1024.53
2019-05-12T02:09:21.774Z,1024.55
2019-05-12T02:09:51.728Z,1024.55
2019-05-12T02:10:21.779Z,1024.60
2019-05-12T02:11:21.778Z,1024.59
2019-05-12T02:11:54.130Z,1024.62
2019-05-12T02:12:21.783Z,1024.61
2019-05-12T02:12:51.724Z,1024.61
2019-05-12T02:13:55.167Z,1024.61
2019-05-12T02:14:21.778Z,1024.63
2019-05-12T02:14:51.727Z,1024.61
2019-05-12T02:15:21.780Z,1024.66
2019-05-12T02:16:21.788Z,1024.61
2019-05-12T02:16:51.732Z,1024.60
2019-05-12T02:17:21.788Z,1024.61
2019-05-12T02:17:51.730Z,1024.61
2019-05-12T02:18:51.724Z,1024.65
2019-05-12T02:19:21.791Z,1024.61
2019-05-12T02:19:51.768Z,1024.61
2019-05-12T02:20:21.784Z,1024.61
2019-05-12T02:21:23.248Z,1024.64
2019-05-12T02:21:51.728Z,1024.65
2019-05-12T02:22:24.202Z,1024.62
2019-05-12T02:22:51.722Z,1024.64
2019-05-12T02:23:51.742Z,1024.61
2019-05-12T02:24:31.222Z,1024.65
2019-05-12T02:24:51.722Z,1024.63
2019-05-12T02:25:21.796Z,1024.65
2019-05-12T02:26:21.796Z,1024.69
2019-05-12T02:26:51.728Z,1024.67
2019-05-12T02:27:21.784Z,1024.69
2019-05-12T02:27:51.720Z,1024.70
2019-05-12T02:28:51.732Z,1024.69
2019-05-12T02:29:21.789Z,1024.70
2019-05-12T02:29:51.731Z,1024.70
2019-05-12T02:30:22.822Z,1024.73
2019-05-12T02:31:22.825Z,1024.75
2019-05-12T02:31:53.116Z,1024.79
2019-05-12T02:32:29.292Z,1024.77
2019-05-12T02:33:00.096Z,1024.80
2019-05-12T02:33:54.871Z,1024.82
2019-05-12T02:34:24.982Z,1024.86
2019-05-12T02:34:56.125Z,1024.81
2019-05-12T02:35:24.371Z,1024.85
2019-05-12T02:36:24.798Z,1024.88
2019-05-12T02:36:55.231Z,1024.89
2019-05-12T02:37:21.790Z,1024.90
2019-05-12T02:37:54.447Z,1024.90
2019-05-12T02:38:51.726Z,1024.91
2019-05-12T02:39:24.589Z,1024.92
2019-05-12T02:39:55.289Z,1024.91
2019-05-12T02:40:24.880Z,1024.92
2019-05-12T02:41:25.630Z,1024.90
2019-05-12T02:41:54.195Z,1024.88
2019-05-12T02:42:26.165Z,1024.92
2019-05-12T02:42:54.771Z,1024.93
2019-05-12T02:43:55.113Z,1024.90
2019-05-12T02:44:24.687Z,1024.88
2019-05-12T02:44:54.940Z,1024.89
2019-05-12T02:45:31.057Z,1024.89
2019-05-12T02:45:54.229Z,1024.91
2019-05-12T02:46:25.125Z,1024.89
2019-05-12T02:46:51.753Z,1024.90
2019-05-12T02:47:24.796Z,1024.88
2019-05-12T02:47:54.271Z,1024.90
2019-05-12T02:48:24.514Z,1024.91
2019-05-12T02:48:54.851Z,1024.89
2019-05-12T02:49:24.383Z,1024.91
2019-05-12T02:49:54.131Z,1024.87
2019-05-12T02:50:24.474Z,1024.86
2019-05-12T02:50:54.487Z,1024.90
2019-05-12T02:51:24.449Z,1024.87
2019-05-12T02:51:54.418Z,1024.87
2019-05-12T02:52:24.886Z,1024.87
2019-05-12T02:52:56.080Z,1024.91
2019-05-12T02:53:24.749Z,1024.90
2019-05-12T02:53:54.623Z,1024.92
2019-05-12T02:54:24.828Z,1024.91
2019-05-12T02:55:00.638Z,1024.93
2019-05-12T02:55:25.229Z,1024.99
2019-05-12T02:56:25.072Z,1024.94
2019-05-12T02:56:54.834Z,1024.94
2019-05-12T02:57:25.098Z,1024.94
2019-05-12T02:57:51.746Z,1024.91
2019-05-12T02:58:25.031Z,1024.94
2019-05-12T02:58:54.300Z,1024.94
2019-05-12T02:59:24.934Z,1025.00
2019-05-12T02:59:54.030Z,1024.99
2019-05-12T03:00:24.811Z,1024.97
2019-05-12T03:00:54.733Z,1025.06
2019-05-12T03:01:24.797Z,1025.05
2019-05-12T03:01:54.686Z,1025.01
2019-05-12T03:02:24.378Z,1025.02
2019-05-12T03:02:54.653Z,1025.00
2019-05-12T03:03:26.091Z,1025.03
2019-05-12T03:03:54.513Z,1025.03
2019-05-12T03:04:24.818Z,1024.96
2019-05-12T03:04:53.954Z,1024.96
2019-05-12T03:05:24.428Z,1024.99
2019-05-12T03:05:54.578Z,1024.99
2019-05-12T03:06:31.049Z,1025.00
2019-05-12T03:06:54.645Z,1025.01
2019-05-12T03:07:25.105Z,1024.99
2019-05-12T03:07:55.029Z,1025.03
2019-05-12T03:08:25.165Z,1024.98
2019-05-12T03:08:54.798Z,1025.03
2019-05-12T03:09:24.808Z,1025.07
2019-05-12T03:09:54.700Z,1025.04
2019-05-12T03:10:24.496Z,1025.05
2019-05-12T03:10:54.554Z,1025.05
2019-05-12T03:11:24.500Z,1025.04
2019-05-12T03:11:55.259Z,1025.04
2019-05-12T03:12:25.165Z,1025.04
2019-05-12T03:12:54.600Z,1025.06
2019-05-12T03:13:24.872Z,1025.08
2019-05-12T03:13:56.191Z,1025.08
2019-05-12T03:14:24.928Z,1025.09
2019-05-12T03:14:54.493Z,1025.10
2019-05-12T03:15:24.588Z,1025.09
2019-05-12T03:15:54.358Z,1025.08
2019-05-12T03:16:25.247Z,1025.06
2019-05-12T03:16:55.203Z,1025.08
2019-05-12T03:17:24.754Z,1025.09
2019-05-12T03:17:54.282Z,1025.07
2019-05-12T03:18:25.047Z,1025.05
2019-05-12T03:18:51.746Z,1025.10
2019-05-12T03:19:24.859Z,1025.11
2019-05-12T03:19:51.777Z,1025.09
2019-05-12T03:20:24.139Z,1025.11
2019-05-12T03:20:54.017Z,1025.13
2019-05-12T03:21:24.435Z,1025.14
2019-05-12T03:21:54.466Z,1025.11
2019-05-12T03:22:24.844Z,1025.13
2019-05-12T03:22:55.005Z,1025.17
2019-05-12T03:23:24.506Z,1025.16
2019-05-12T03:23:54.763Z,1025.22
2019-05-12T03:24:26.243Z,1025.22
2019-05-12T03:25:07.604Z,1025.24
2019-05-12T03:25:30.337Z,1025.25
2019-05-12T03:25:54.598Z,1025.23
2019-05-12T03:26:24.574Z,1025.26
2019-05-12T03:26:54.985Z,1025.25
2019-05-12T03:27:31.232Z,1025.23
2019-05-12T03:27:54.187Z,1025.29
2019-05-12T03:28:24.990Z,1025.27
2019-05-12T03:28:54.685Z,1025.29
2019-05-12T03:29:24.747Z,1025.31
2019-05-12T03:29:54.893Z,1025.28
2019-05-12T03:30:28.006Z,1025.28
2019-05-12T03:30:56.692Z,1025.31
2019-05-12T03:31:31.174Z,1025.31
2019-05-12T03:31:56.483Z,1025.31
2019-05-12T03:32:26.506Z,1025.32
2019-05-12T03:32:57.171Z,1025.34
2019-05-12T03:33:27.907Z,1025.34
2019-05-12T03:33:59.817Z,1025.35
2019-05-12T03:34:28.495Z,1025.36
2019-05-12T03:34:57.768Z,1025.36
2019-05-12T03:35:31.850Z,1025.37
2019-05-12T03:36:31.547Z,1025.36
2019-05-12T03:36:59.725Z,1025.38
2019-05-12T03:37:30.421Z,1025.36
2019-05-12T03:37:56.094Z,1025.37
2019-05-12T03:38:24.765Z,1025.35
2019-05-12T03:38:54.799Z,1025.36
2019-05-12T03:39:24.699Z,1025.38
2019-05-12T03:39:53.994Z,1025.35
2019-05-12T03:40:24.788Z,1025.39
2019-05-12T03:40:54.795Z,1025.37
2019-05-12T03:41:24.726Z,1025.39
2019-05-12T03:41:54.374Z,1025.41
2019-05-12T03:42:24.649Z,1025.40
2019-05-12T03:42:54.638Z,1025.40
2019-05-12T03:43:24.248Z,1025.42
2019-05-12T03:43:54.704Z,1025.44
2019-05-12T03:44:24.864Z,1025.44
2019-05-12T03:44:53.929Z,1025.44
2019-05-12T03:45:26.106Z,1025.43
2019-05-12T03:45:55.501Z,1025.42
2019-05-12T03:46:24.915Z,1025.45
2019-05-12T03:46:54.301Z,1025.45
2019-05-12T03:47:24.739Z,1025.44
2019-05-12T03:47:54.497Z,1025.43
2019-05-12T03:48:34.573Z,1025.43
2019-05-12T03:49:24.392Z,1025.45
2019-05-12T03:49:54.373Z,1025.44
2019-05-12T03:50:24.825Z,1025.42
2019-05-12T03:50:54.098Z,1025.44
2019-05-12T03:51:25.024Z,1025.44
2019-05-12T03:51:54.754Z,1025.43
2019-05-12T03:52:24.810Z,1025.40
2019-05-12T03:52:51.751Z,1025.44
2019-05-12T03:53:25.090Z,1025.43
2019-05-12T03:53:54.734Z,1025.46
2019-05-12T03:54:24.815Z,1025.44
2019-05-12T03:54:51.743Z,1025.46
2019-05-12T03:55:35.195Z,1025.46
2019-05-12T03:56:04.106Z,1025.48
2019-05-12T03:56:34.033Z,1025.48
2019-05-12T03:57:04.195Z,1025.53
2019-05-12T03:57:34.170Z,1025.48
2019-05-12T03:58:04.184Z,1025.50
2019-05-12T03:58:34.447Z,1025.53
2019-05-12T03:59:05.573Z,1025.51
2019-05-12T03:59:34.460Z,1025.53
2019-05-12T04:00:07.103Z,1025.55
2019-05-12T04:00:31.265Z,1025.54
2019-05-12T04:01:04.230Z,1025.56
2019-05-12T04:01:31.278Z,1025.56
2019-05-12T04:02:10.124Z,1025.55
2019-05-12T04:02:33.776Z,1025.58
2019-05-12T04:03:03.887Z,1025.54
2019-05-12T04:03:34.189Z,1025.56
2019-05-12T04:04:04.769Z,1025.60
2019-05-12T04:04:34.079Z,1025.59
2019-05-12T04:05:04.742Z,1025.59
2019-05-12T04:05:34.411Z,1025.59
2019-05-12T04:06:04.296Z,1025.60
2019-05-12T04:06:34.280Z,1025.62
2019-05-12T04:07:04.754Z,1025.59
2019-05-12T04:07:34.155Z,1025.60
2019-05-12T04:08:04.968Z,1025.59
2019-05-12T04:08:34.354Z,1025.59
2019-05-12T04:09:04.553Z,1025.60
2019-05-12T04:09:35.274Z,1025.60
2019-05-12T04:10:01.338Z,1025.58
2019-05-12T04:10:37.215Z,1025.61
2019-05-12T04:11:01.352Z,1025.58
2019-05-12T04:11:31.276Z,1025.57
2019-05-12T04:12:01.334Z,1025.58
2019-05-12T04:12:40.082Z,1025.58
2019-05-12T04:13:04.168Z,1025.63
2019-05-12T04:13:33.825Z,1025.61
2019-05-12T04:14:01.327Z,1025.62
2019-05-12T04:14:34.288Z,1025.64
2019-05-12T04:15:04.691Z,1025.64
2019-05-12T04:15:34.130Z,1025.65
2019-05-12T04:16:04.519Z,1025.66
2019-05-12T04:16:31.273Z,1025.66
2019-05-12T04:17:04.311Z,1025.66
2019-05-12T04:17:31.277Z,1025.68
2019-05-12T04:18:04.789Z,1025.71
2019-05-12T04:18:31.275Z,1025.74
2019-05-12T04:19:01.332Z,1025.76
2019-05-12T04:19:34.100Z,1025.73
2019-05-12T04:20:04.305Z,1025.74
2019-05-12T04:20:35.083Z,1025.78
2019-05-12T04:21:07.078Z,1025.80
2019-05-12T04:21:31.276Z,1025.79
2019-05-12T04:22:01.334Z,1025.78
2019-05-12T04:22:31.288Z,1025.80
2019-05-12T04:23:10.098Z,1025.81
2019-05-12T04:23:31.282Z,1025.81
2019-05-12T04:24:01.343Z,1025.82
2019-05-12T04:24:31.272Z,1025.81
2019-05-12T04:25:01.356Z,1025.81
2019-05-12T04:25:50.812Z,1025.82
2019-05-12T04:26:31.275Z,1025.81
2019-05-12T04:27:01.337Z,1025.82
2019-05-12T04:27:34.547Z,1025.83
2019-05-12T04:28:04.432Z,1025.83
2019-05-12T04:28:34.801Z,1025.85
2019-05-12T04:29:04.690Z,1025.83
2019-05-12T04:29:31.273Z,1025.87
2019-05-12T04:30:01.352Z,1025.87
2019-05-12T04:30:35.051Z,1025.89
2019-05-12T04:31:01.329Z,1025.89
2019-05-12T04:31:35.097Z,1025.90
2019-05-12T04:32:01.336Z,1025.91
2019-05-12T04:32:31.278Z,1025.93
2019-05-12T04:33:04.236Z,1025.92
2019-05-12T04:34:01.335Z,1025.95
2019-05-12T04:34:34.037Z,1025.99
2019-05-12T04:35:04.430Z,1025.98
2019-05-12T04:35:34.364Z,1026.02
2019-05-12T04:36:01.342Z,1026.01
2019-05-12T04:36:31.299Z,1026.02
2019-05-12T04:37:04.225Z,1026.00
2019-05-12T04:37:31.276Z,1025.99
2019-05-12T04:38:03.895Z,1026.06
2019-05-12T04:38:31.278Z,1026.06
2019-05-12T04:39:04.077Z,1026.07
2019-05-12T04:39:33.859Z,1026.06
2019-05-12T04:40:01.364Z,1026.09
2019-05-12T04:40:31.279Z,1026.06
2019-05-12T04:41:01.360Z,1026.07
2019-05-12T04:41:31.277Z,1026.10
2019-05-12T04:42:07.084Z,1026.10
2019-05-12T04:42:31.278Z,1026.12
2019-05-12T04:43:01.346Z,1026.15
2019-05-12T04:43:31.305Z,1026.13
2019-05-12T04:44:10.069Z,1026.19
2019-05-12T04:44:34.409Z,1026.18
2019-05-12T04:45:04.119Z,1026.20
2019-05-12T04:45:34.160Z,1026.21
2019-05-12T04:46:01.342Z,1026.23
2019-05-12T04:46:34.260Z,1026.22
2019-05-12T04:47:01.342Z,1026.25
2019-05-12T04:47:34.579Z,1026.23
2019-05-12T04:48:04.650Z,1026.24
2019-05-12T04:48:35.331Z,1026.25
2019-05-12T04:49:01.349Z,1026.25
2019-05-12T04:49:34.312Z,1026.25
2019-05-12T04:50:05.088Z,1026.27
2019-05-12T04:50:34.796Z,1026.29
2019-05-12T04:51:01.344Z,1026.27
2019-05-12T04:51:35.482Z,1026.28
2019-05-12T04:52:01.342Z,1026.28
2019-05-12T04:52:37.068Z,1026.30
2019-05-12T04:53:01.344Z,1026.33
2019-05-12T04:53:31.301Z,1026.33
2019-05-12T04:54:01.344Z,1026.33
2019-05-12T04:54:40.084Z,1026.35
2019-05-12T04:55:04.344Z,1026.35
2019-05-12T04:55:31.286Z,1026.39
2019-05-12T04:56:31.285Z,1026.37
2019-05-12T04:57:03.804Z,1026.40
2019-05-12T04:57:34.228Z,1026.42
2019-05-12T04:58:04.090Z,1026.39
2019-05-12T04:58:34.701Z,1026.41
2019-05-12T04:59:04.591Z,1026.41
2019-05-12T04:59:34.161Z,1026.41
2019-05-12T05:00:04.703Z,1026.45
2019-05-12T05:00:34.288Z,1026.46
2019-05-12T05:01:01.364Z,1026.44
2019-05-12T05:01:33.659Z,1026.47
2019-05-12T05:02:04.987Z,1026.50
2019-05-12T05:02:35.084Z,1026.52
2019-05-12T05:03:08.078Z,1026.51
2019-05-12T05:03:31.283Z,1026.54
2019-05-12T05:04:01.344Z,1026.52
2019-05-12T05:04:31.290Z,1026.53
2019-05-12T05:05:10.125Z,1026.54
2019-05-12T05:05:31.288Z,1026.55
2019-05-12T05:06:04.075Z,1026.56
2019-05-12T05:06:33.861Z,1026.60
2019-05-12T05:07:04.174Z,1026.60
2019-05-12T05:07:31.289Z,1026.59
2019-05-12T05:08:03.955Z,1026.60
2019-05-12T05:08:31.292Z,1026.60
2019-05-12T05:09:01.355Z,1026.64
2019-05-12T05:09:31.288Z,1026.65
2019-05-12T05:10:04.358Z,1026.65
2019-05-12T05:10:33.965Z,1026.67
2019-05-12T05:11:03.782Z,1026.66
2019-05-12T05:11:31.332Z,1026.68
2019-05-12T05:12:01.345Z,1026.70
2019-05-12T05:12:34.461Z,1026.70
2019-05-12T05:13:01.350Z,1026.69
2019-05-12T05:14:03.849Z,1026.73
2019-05-12T05:14:33.763Z,1026.72
2019-05-12T05:15:01.357Z,1026.69
2019-05-12T05:15:40.179Z,1026.72
2019-05-12T05:16:01.344Z,1026.73
2019-05-12T05:16:31.284Z,1026.76
2019-05-12T05:17:04.971Z,1026.78
2019-05-12T05:17:31.281Z,1026.76
2019-05-12T05:18:01.344Z,1026.80
2019-05-12T05:18:31.284Z,1026.78
2019-05-12T05:19:03.388Z,1026.80
2019-05-12T05:19:33.525Z,1026.80
2019-05-12T05:20:02.029Z,1026.83
2019-05-12T05:20:31.326Z,1026.82
2019-05-12T05:21:01.343Z,1026.85
2019-05-12T05:21:31.292Z,1026.86
2019-05-12T05:22:01.346Z,1026.87
2019-05-12T05:22:33.247Z,1026.89
2019-05-12T05:23:03.440Z,1026.91
2019-05-12T05:23:33.378Z,1026.88
2019-05-12T05:24:06.082Z,1026.90
2019-05-12T05:24:31.308Z,1026.91
2019-05-12T05:25:01.366Z,1026.92
2019-05-12T05:25:31.293Z,1026.92
2019-05-12T05:26:34.774Z,1026.96
2019-05-12T05:27:01.410Z,1026.92
2019-05-12T05:27:31.290Z,1026.92
2019-05-12T05:28:03.688Z,1026.93
2019-05-12T05:28:31.292Z,1026.96
2019-05-12T05:29:01.356Z,1026.95
2019-05-12T05:29:33.260Z,1026.95
2019-05-12T05:30:03.659Z,1026.96
2019-05-12T05:30:33.492Z,1026.97
2019-05-12T05:31:03.280Z,1027.00
2019-05-12T05:31:33.425Z,1027.00
2019-05-12T05:32:03.326Z,1027.01
2019-05-12T05:32:33.626Z,1027.00
2019-05-12T05:33:01.351Z,1027.02
2019-05-12T05:34:01.348Z,1027.04
2019-05-12T05:34:35.065Z,1027.03
2019-05-12T05:35:03.553Z,1027.03
2019-05-12T05:35:39.733Z,1027.07
2019-05-12T05:36:03.266Z,1027.03
2019-05-12T05:36:40.085Z,1027.04
2019-05-12T05:37:05.148Z,1027.10
2019-05-12T05:37:41.417Z,1027.06
2019-05-12T05:38:01.362Z,1027.10
2019-05-12T05:38:31.290Z,1027.09
2019-05-12T05:39:06.359Z,1027.09
2019-05-12T05:39:35.321Z,1027.13
2019-05-12T05:40:03.708Z,1027.11
2019-05-12T05:40:32.295Z,1027.13
2019-05-12T05:41:31.303Z,1027.14
2019-05-12T05:42:01.356Z,1027.15
2019-05-12T05:42:36.299Z,1027.16
2019-05-12T05:43:17.864Z,1027.18
2019-05-12T05:43:33.141Z,1027.13
2019-05-12T05:44:03.067Z,1027.16
2019-05-12T05:44:37.937Z,1027.12
2019-05-12T05:45:09.780Z,1027.13
2019-05-12T05:45:31.298Z,1027.11
2019-05-12T05:46:33.434Z,1027.11
2019-05-12T05:47:10.081Z,1027.12
2019-05-12T05:47:33.447Z,1027.12
2019-05-12T05:48:13.544Z,1027.13
2019-05-12T05:49:01.358Z,1027.16
2019-05-12T05:49:31.287Z,1027.14
2019-05-12T05:50:01.410Z,1027.14
2019-05-12T05:50:31.288Z,1027.16
2019-05-12T05:51:33.425Z,1027.18
2019-05-12T05:52:02.998Z,1027.15
2019-05-12T05:52:38.594Z,1027.18
2019-05-12T05:53:03.445Z,1027.17
2019-05-12T05:53:33.352Z,1027.21
2019-05-12T05:54:03.686Z,1027.18
2019-05-12T05:54:39.594Z,1027.20
2019-05-12T05:55:05.613Z,1027.21
2019-05-12T05:55:35.075Z,1027.20
2019-05-12T05:56:42.572Z,1027.20
2019-05-12T05:57:06.410Z,1027.21
2019-05-12T05:57:35.108Z,1027.21
2019-05-12T05:58:10.201Z,1027.22
2019-05-12T05:58:33.692Z,1027.24
2019-05-12T05:59:03.893Z,1027.25
2019-05-12T05:59:38.098Z,1027.26
2019-05-12T06:00:06.310Z,1027.26
2019-05-12T06:00:31.293Z,1027.30
2019-05-12T06:01:31.295Z,1027.35
2019-05-12T06:02:01.363Z,1027.36
2019-05-12T06:02:40.290Z,1027.34
2019-05-12T06:03:04.622Z,1027.37
2019-05-12T06:03:33.673Z,1027.38
2019-05-12T06:04:08.569Z,1027.39
2019-05-12T06:04:31.312Z,1027.40
2019-05-12T06:05:04.130Z,1027.39
2019-05-12T06:05:34.226Z,1027.44
2019-05-12T06:06:12.492Z,1027.41
2019-05-12T06:06:31.338Z,1027.44
2019-05-12T06:07:03.952Z,1027.44
2019-05-12T06:07:39.035Z,1027.44
2019-05-12T06:08:16.014Z,1027.47
2019-05-12T06:08:33.311Z,1027.46
2019-05-12T06:09:03.497Z,1027.45
2019-05-12T06:09:31.315Z,1027.44
2019-05-12T06:10:03.858Z,1027.45
2019-05-12T06:10:40.226Z,1027.45
2019-05-12T06:11:01.383Z,1027.45
2019-05-12T06:11:31.299Z,1027.44
2019-05-12T06:12:09.601Z,1027.44
2019-05-12T06:12:33.417Z,1027.46
2019-05-12T06:13:03.771Z,1027.45
2019-05-12T06:14:11.222Z,1027.48
2019-05-12T06:14:31.297Z,1027.47
2019-05-12T06:15:01.361Z,1027.47
2019-05-12T06:15:40.540Z,1027.47
2019-05-12T06:16:01.367Z,1027.47
2019-05-12T06:16:35.075Z,1027.48
2019-05-12T06:17:01.357Z,1027.47
2019-05-12T06:17:31.297Z,1027.51
2019-05-12T06:18:03.538Z,1027.50
2019-05-12T06:19:03.296Z,1027.49
2019-05-12T06:19:31.298Z,1027.51
2019-05-12T06:20:01.363Z,1027.49
2019-05-12T06:20:34.484Z,1027.51
2019-05-12T06:21:03.377Z,1027.51
2019-05-12T06:21:38.118Z,1027.50
2019-05-12T06:22:01.357Z,1027.52
2019-05-12T06:22:31.300Z,1027.50
2019-05-12T06:23:01.361Z,1027.50
2019-05-12T06:24:03.428Z,1027.53
2019-05-12T06:24:33.415Z,1027.51
2019-05-12T06:25:04.520Z,1027.53
2019-05-12T06:25:45.877Z,1027.52
2019-05-12T06:26:04.204Z,1027.52
2019-05-12T06:26:36.314Z,1027.51
2019-05-12T06:27:15.927Z,1027.53
2019-05-12T06:27:35.892Z,1027.54
2019-05-12T06:28:09.008Z,1027.54
2019-05-12T06:29:16.631Z,1027.54
2019-05-12T06:29:33.308Z,1027.52
2019-05-12T06:30:07.062Z,1027.51
2019-05-12T06:30:35.565Z,1027.52
2019-05-12T06:31:01.361Z,1027.55
2019-05-12T06:31:33.364Z,1027.52
2019-05-12T06:32:10.701Z,1027.53
2019-05-12T06:32:33.458Z,1027.53
2019-05-12T06:33:03.954Z,1027.52
2019-05-12T06:34:20.720Z,1027.57
2019-05-12T06:34:39.027Z,1027.57
2019-05-12T06:35:10.123Z,1027.57
2019-05-12T06:35:45.584Z,1027.58
2019-05-12T06:36:21.826Z,1027.57
2019-05-12T06:36:40.179Z,1027.59
2019-05-12T06:37:16.837Z,1027.59
2019-05-12T06:37:40.183Z,1027.60
2019-05-12T06:38:10.121Z,1027.62
2019-05-12T06:38:45.187Z,1027.61
2019-05-12T06:39:16.332Z,1027.61
2019-05-12T06:39:40.191Z,1027.62
2019-05-12T06:40:10.131Z,1027.61
2019-05-12T06:40:46.139Z,1027.61
2019-05-12T06:41:20.425Z,1027.59
2019-05-12T06:42:16.929Z,1027.62
2019-05-12T06:42:53.839Z,1027.63
2019-05-12T06:43:10.135Z,1027.62
2019-05-12T06:43:46.121Z,1027.62
2019-05-12T06:44:19.312Z,1027.64
2019-05-12T06:45:10.131Z,1027.67
2019-05-12T06:45:45.799Z,1027.66
2019-05-12T06:46:20.277Z,1027.67
2019-05-12T06:47:10.137Z,1027.70
2019-05-12T06:47:49.287Z,1027.73